Seabulk Challenge — KNJL — position and weather

sailwx.info

Track history (hours):
 
Tides and Currents Weather Stations Pressure Air Temp Water Temp Dewpoint Dewpoint Depression Visibility Wind Speed Wind Dir Waves Ship Positions

Seabulk Challenge

Owner: Seabulk Tankers, Inc., Fort Lauderdale, FL. More information available from US FCC via Universal Licensing System and Coast Guard Vessel Documentation Center.

Last reported at 2014-Dec-22 06:33 UTC. Time now 2014-Dec-23 04:24 UTC.
Position N 39°22' W 073°57'.

Length 192 m; draft 10.6 m.

Type: Tanker. MMSI: 303104000.

Date/timePositionNaut miles runAvg speedWind from/ knotsBaromVisibWave heightAir tempDewpointWater temp
2014-Dec-22 06:33N 39°22' W 073°57'1515.4
2014-Dec-22 05:33N 39°37' W 073°53'1515.3
2014-Dec-22 04:33N 39°52' W 073°50'2014.2
2014-Dec-22 03:06N 40°13' W 073°49'610.4
2014-Dec-22 02:30N 40°19' W 073°49'9 9.7
2014-Dec-22 01:33N 40°27' W 073°56'9 9.5
2014-Dec-22 00:33N 40°30' W 074°08'6 4.7
2014-Dec-21 23:18N 40°34' W 074°13'4 5.1
2014-Dec-21 22:33N 40°38' W 074°12'0 0.0
2014-Dec-21 00:06N 40°38' W 074°12'1 1.4
2014-Dec-20 23:32N 40°39' W 074°11'6 6.1
2014-Dec-20 22:33N 40°39' W 074°04'10 9.6
2014-Dec-20 21:33N 40°30' W 073°57'10 9.9
2014-Dec-20 20:33N 40°30' W 073°45'1 1.3
2014-Dec-20 19:28N 40°30' W 073°43'0 0.0
2014-Dec-20 18:32N 40°30' W 073°43'0 0.0
2014-Dec-20 17:31N 40°30' W 073°43'0 0.0
2014-Dec-20 16:29N 40°30' W 073°43'0 0.0
2014-Dec-20 15:32N 40°30' W 073°43'0 0.0
2014-Dec-20 14:28N 40°30' W 073°43'0 0.0
2014-Dec-20 13:28N 40°30' W 073°43'0 0.0
2014-Dec-20 12:31N 40°30' W 073°43'0 0.0
2014-Dec-20 11:25N 40°30' W 073°43'0 0.0
2014-Dec-20 10:31N 40°30' W 073°43'0 0.0
2014-Dec-20 09:31N 40°30' W 073°43'0 0.0
2014-Dec-20 08:31N 40°30' W 073°43'0 0.0
2014-Dec-20 07:31N 40°30' W 073°43'0 0.1
2014-Dec-20 06:34N 40°30' W 073°43'9 8.6
2014-Dec-20 05:33N 40°22' W 073°46'10 9.6
2014-Dec-20 04:34N 40°12' W 073°46'1312.1
2014-Dec-20 03:29N 39°59' W 073°43'1313.6
2014-Dec-20 02:34N 39°47' W 073°41'1513.5
2014-Dec-20 01:28N 39°32' W 073°44'33014.4
2014-Dec-19 02:32N 34°15' W 075°35'48415.6
2014-Dec-17 19:33N 27°00' W 079°43'3617.8
2014-Dec-17 17:33N 26°25' W 079°46'1817.6
2014-Dec-17 16:33N 26°07' W 079°48'1817.8
2014-Dec-17 15:33N 25°50' W 079°51'58911.7
2014-Dec-15 13:06N 29°53' W 089°58'5 4.7
2014-Dec-15 12:05N 29°57' W 090°01'7 9.3
2014-Dec-15 11:23N 29°55' W 090°08'31 9.4
2014-Dec-15 08:03N 30°01' W 090°44'510.9
2014-Dec-15 07:33N 29°59' W 090°50'1 0.9
2014-Dec-15 06:33N 29°60' W 090°50'0 0.0
2014-Dec-15 05:22N 29°60' W 090°50'0 0.0
2014-Dec-14 13:22N 29°60' W 090°50'0 0.0
2014-Dec-14 12:04N 29°60' W 090°50'0 0.0
2014-Dec-14 11:16N 29°60' W 090°50'0 0.0
2014-Dec-14 10:04N 29°60' W 090°50'0 0.0
2014-Dec-14 09:25N 29°60' W 090°50'0 0.0
2014-Dec-14 07:04N 29°60' W 090°50'0 0.0
2014-Dec-13 14:28N 29°60' W 090°50'0 0.0
2014-Dec-13 13:28N 29°60' W 090°50'0 0.0
2014-Dec-13 10:28N 29°60' W 090°50'0 0.0
2014-Dec-13 09:25N 29°60' W 090°50'0 0.0
2014-Dec-13 07:20N 29°60' W 090°50'0 0.3
2014-Dec-13 06:28N 29°60' W 090°50'40 7.7
2014-Dec-13 01:11N 29°57' W 090°03'  
Track history (hours):
 
Tides and Currents Weather Stations Pressure Air Temp Water Temp Dewpoint Dewpoint Depression Visibility Wind Speed Wind Dir Waves Ship Positions

Seabulk Challenge

Owner: Seabulk Tankers, Inc., Fort Lauderdale, FL. More information available from US FCC via Universal Licensing System and Coast Guard Vessel Documentation Center.

Last reported at 2014-Dec-22 06:33 UTC. Time now 2014-Dec-23 04:24 UTC.
Position N 39°22' W 073°57'.

Length 192 m; draft 10.6 m.

Type: Tanker. MMSI: 303104000.

Date/timePositionNaut miles runAvg speedWind from/ knotsBaromVisibWave heightAir tempDewpointWater temp
2014-Dec-22 06:33N 39°22' W 073°57'1515.4
2014-Dec-22 05:33N 39°37' W 073°53'1515.3
2014-Dec-22 04:33N 39°52' W 073°50'2014.2
2014-Dec-22 03:06N 40°13' W 073°49'610.4
2014-Dec-22 02:30N 40°19' W 073°49'9 9.7
2014-Dec-22 01:33N 40°27' W 073°56'9 9.5
2014-Dec-22 00:33N 40°30' W 074°08'6 4.7
2014-Dec-21 23:18N 40°34' W 074°13'4 5.1
2014-Dec-21 22:33N 40°38' W 074°12'0 0.0
2014-Dec-21 00:06N 40°38' W 074°12'1 1.4
2014-Dec-20 23:32N 40°39' W 074°11'6 6.1
2014-Dec-20 22:33N 40°39' W 074°04'10 9.6
2014-Dec-20 21:33N 40°30' W 073°57'10 9.9
2014-Dec-20 20:33N 40°30' W 073°45'1 1.3
2014-Dec-20 19:28N 40°30' W 073°43'0 0.0
2014-Dec-20 18:32N 40°30' W 073°43'0 0.0
2014-Dec-20 17:31N 40°30' W 073°43'0 0.0
2014-Dec-20 16:29N 40°30' W 073°43'0 0.0
2014-Dec-20 15:32N 40°30' W 073°43'0 0.0
2014-Dec-20 14:28N 40°30' W 073°43'0 0.0
2014-Dec-20 13:28N 40°30' W 073°43'0 0.0
2014-Dec-20 12:31N 40°30' W 073°43'0 0.0
2014-Dec-20 11:25N 40°30' W 073°43'0 0.0
2014-Dec-20 10:31N 40°30' W 073°43'0 0.0
2014-Dec-20 09:31N 40°30' W 073°43'0 0.0
2014-Dec-20 08:31N 40°30' W 073°43'0 0.0
2014-Dec-20 07:31N 40°30' W 073°43'0 0.1
2014-Dec-20 06:34N 40°30' W 073°43'9 8.6
2014-Dec-20 05:33N 40°22' W 073°46'10 9.6
2014-Dec-20 04:34N 40°12' W 073°46'1312.1
2014-Dec-20 03:29N 39°59' W 073°43'1313.6
2014-Dec-20 02:34N 39°47' W 073°41'1513.5
2014-Dec-20 01:28N 39°32' W 073°44'33014.4
2014-Dec-19 02:32N 34°15' W 075°35'48415.6
2014-Dec-17 19:33N 27°00' W 079°43'3617.8
2014-Dec-17 17:33N 26°25' W 079°46'1817.6
2014-Dec-17 16:33N 26°07' W 079°48'1817.8
2014-Dec-17 15:33N 25°50' W 079°51'58911.7
2014-Dec-15 13:06N 29°53' W 089°58'5 4.7
2014-Dec-15 12:05N 29°57' W 090°01'7 9.3
2014-Dec-15 11:23N 29°55' W 090°08'31 9.4
2014-Dec-15 08:03N 30°01' W 090°44'510.9
2014-Dec-15 07:33N 29°59' W 090°50'1 0.9
2014-Dec-15 06:33N 29°60' W 090°50'0 0.0
2014-Dec-15 05:22N 29°60' W 090°50'0 0.0
2014-Dec-14 13:22N 29°60' W 090°50'0 0.0
2014-Dec-14 12:04N 29°60' W 090°50'0 0.0
2014-Dec-14 11:16N 29°60' W 090°50'0 0.0
2014-Dec-14 10:04N 29°60' W 090°50'0 0.0
2014-Dec-14 09:25N 29°60' W 090°50'0 0.0
2014-Dec-14 07:04N 29°60' W 090°50'0 0.0
2014-Dec-13 14:28N 29°60' W 090°50'0 0.0
2014-Dec-13 13:28N 29°60' W 090°50'0 0.0
2014-Dec-13 10:28N 29°60' W 090°50'0 0.0
2014-Dec-13 09:25N 29°60' W 090°50'0 0.0
2014-Dec-13 07:20N 29°60' W 090°50'0 0.3
2014-Dec-13 06:28N 29°60' W 090°50'40 7.7
2014-Dec-13 01:11N 29°57' W 090°03'  

Dump ship's entire track history